Time;durP1;ratioP1;P1;durP2;ratioP2;P2;SDS_P1;SDS_P2;PMS_P1;PMS_P2;Temp;Humidity;BMP_temperature;BMP_pressure;BME280_temperature;BME280_humidity;BME280_pressure;Samples;Min_cycle;Max_cycle;Signal;HPM_P1;HPM_P2
2023/03/27 00:02:03;;;;;;;4.50;1.40;;;6.60;99.90;;;;;;5064568;28;20177;-69
2023/03/27 00:04:28;;;;;;;6.23;1.30;;;6.60;99.90;;;;;;5089537;28;20173;-67
2023/03/27 00:06:58;;;;;;;3.63;1.10;;;6.50;99.90;;;;;;5066514;28;20176;-69
2023/03/27 00:09:24;;;;;;;3.83;1.20;;;6.40;99.90;;;;;;5096468;28;20271;-69
2023/03/27 00:11:54;;;;;;;6.60;1.40;;;6.40;99.90;;;;;;5099778;28;20281;-69
2023/03/27 00:14:20;;;;;;;3.10;1.17;;;6.40;99.90;;;;;;5070586;28;20199;-69
2023/03/27 00:16:46;;;;;;;8.07;1.20;;;6.30;99.90;;;;;;5062524;28;20177;-66
2023/03/27 00:19:12;;;;;;;8.53;1.40;;;6.30;99.90;;;;;;5070528;28;20189;-66
2023/03/27 00:21:39;;;;;;;4.20;1.33;;;6.20;99.90;;;;;;5066693;28;20188;-64
2023/03/27 00:24:05;;;;;;;6.63;1.27;;;6.20;99.90;;;;;;5073606;28;20181;-67
2023/03/27 00:26:31;;;;;;;5.33;1.20;;;6.10;99.90;;;;;;5066022;28;20191;-66
2023/03/27 00:28:56;;;;;;;4.33;1.20;;;6.10;99.90;;;;;;5056952;28;20268;-68
2023/03/27 00:31:22;;;;;;;5.57;1.47;;;6.10;99.90;;;;;;5059735;28;20209;-62
2023/03/27 00:33:50;;;;;;;3.80;1.13;;;6.00;99.90;;;;;;5070265;28;20175;-69
2023/03/27 00:36:16;;;;;;;4.20;1.30;;;6.00;99.90;;;;;;5073723;28;20192;-68
2023/03/27 00:38:42;;;;;;;5.40;1.67;;;6.00;99.90;;;;;;5088703;28;20205;-65
2023/03/27 00:41:08;;;;;;;2.63;1.20;;;6.00;99.90;;;;;;5058363;28;20185;-69
2023/03/27 00:43:35;;;;;;;7.93;1.90;;;5.90;99.90;;;;;;5096726;28;20204;-69
2023/03/27 00:46:06;;;;;;;6.73;1.27;;;5.90;99.90;;;;;;5074100;28;20422;-68
2023/03/27 00:48:35;;;;;;;4.17;1.17;;;5.90;99.90;;;;;;5074159;28;20177;-66
2023/03/27 00:51:03;;;;;;;7.73;1.40;;;5.80;99.90;;;;;;5059985;28;20284;-69
2023/03/27 00:53:29;;;;;;;5.97;1.20;;;5.80;99.90;;;;;;5060682;28;20168;-69
2023/03/27 00:56:00;;;;;;;6.80;1.47;;;5.80;99.90;;;;;;5074563;28;20193;-69
2023/03/27 00:58:32;;;;;;;4.43;1.30;;;5.80;99.90;;;;;;5074397;28;20226;-66
2023/03/27 01:00:58;;;;;;;6.43;1.50;;;5.70;99.90;;;;;;5074238;28;20186;-69
2023/03/27 01:03:28;;;;;;;6.57;1.30;;;5.70;99.90;;;;;;5074420;28;20176;-69
2023/03/27 01:05:56;;;;;;;6.27;1.40;;;5.80;99.90;;;;;;5074358;28;20177;-64
2023/03/27 01:08:23;;;;;;;3.77;1.30;;;5.70;99.90;;;;;;5074302;28;20255;-68
2023/03/27 01:11:13;;;;;;;5.07;1.33;;;5.70;99.90;;;;;;5074459;28;20208;-69
2023/03/27 01:13:48;;;;;;;5.03;1.30;;;5.70;99.90;;;;;;5065947;28;20197;-64
2023/03/27 01:16:43;;;;;;;4.53;1.20;;;5.70;99.90;;;;;;5054242;28;20180;-67
2023/03/27 01:19:15;;;;;;;5.30;1.20;;;5.60;99.90;;;;;;5076248;28;20172;-68
2023/03/27 01:22:52;;;;;;;4.57;1.40;;;5.60;99.90;;;;;;5087724;28;20205;-68
2023/03/27 01:25:51;;;;;;;5.30;1.37;;;5.50;99.90;;;;;;5007726;28;20216;-67
2023/03/27 01:28:35;;;;;;;3.13;1.03;;;5.50;99.90;;;;;;5068560;28;20181;-67
2023/03/27 01:31:36;;;;;;;5.70;1.57;;;5.40;99.90;;;;;;5094070;28;20203;-69
2023/03/27 01:34:01;;;;;;;5.77;1.40;;;5.40;99.90;;;;;;5069430;28;20287;-69
2023/03/27 01:37:01;;;;;;;3.50;1.40;;;5.30;99.90;;;;;;5068232;28;20259;-64
2023/03/27 01:39:43;;;;;;;4.37;1.47;;;5.20;99.90;;;;;;5056253;28;20205;-68
2023/03/27 01:42:26;;;;;;;5.00;1.50;;;5.20;99.90;;;;;;5057542;28;20177;-68
2023/03/27 01:45:10;;;;;;;5.80;1.30;;;5.20;99.90;;;;;;5054980;28;20197;-68
2023/03/27 01:47:50;;;;;;;6.63;1.23;;;5.10;99.90;;;;;;5102455;28;20177;-68
2023/03/27 01:50:27;;;;;;;6.27;1.40;;;5.00;99.90;;;;;;5074901;28;20196;-69
2023/03/27 01:53:01;;;;;;;5.63;1.30;;;5.00;99.90;;;;;;5087863;28;20169;-69
2023/03/27 01:55:31;;;;;;;5.57;1.40;;;5.00;99.90;;;;;;5067910;28;20183;-69
2023/03/27 01:58:06;;;;;;;6.67;1.40;;;5.00;99.90;;;;;;5055280;28;20193;-68
2023/03/27 02:00:37;;;;;;;4.83;1.20;;;5.00;99.90;;;;;;5055142;28;20239;-69
2023/03/27 02:03:12;;;;;;;4.87;1.23;;;4.90;99.90;;;;;;5092600;28;20169;-69
2023/03/27 02:05:48;;;;;;;2.80;1.40;;;5.00;99.90;;;;;;5064889;28;20319;-69
2023/03/27 02:08:26;;;;;;;4.60;1.30;;;4.90;99.90;;;;;;5068188;28;20192;-68
2023/03/27 02:10:58;;;;;;;5.67;1.50;;;4.90;99.90;;;;;;5087190;28;20209;-69
2023/03/27 02:13:33;;;;;;;6.40;1.50;;;5.00;99.90;;;;;;5063831;28;20180;-68
2023/03/27 02:16:02;;;;;;;5.57;1.53;;;4.90;99.90;;;;;;5069898;28;20440;-67
2023/03/27 02:18:33;;;;;;;3.30;1.20;;;4.90;99.90;;;;;;5061409;28;20193;-67
2023/03/27 02:21:02;;;;;;;3.67;1.20;;;4.80;99.90;;;;;;5076786;28;20275;-68
2023/03/27 02:23:32;;;;;;;6.00;1.53;;;4.80;99.90;;;;;;5069945;28;20174;-69
2023/03/27 02:26:01;;;;;;;3.03;1.27;;;4.90;99.90;;;;;;5101846;28;20255;-66
2023/03/27 02:28:49;;;;;;;2.67;1.13;;;4.90;99.90;;;;;;5072737;28;20169;-69
2023/03/27 02:31:37;;;;;;;3.57;1.13;;;4.90;99.90;;;;;;5072261;28;20202;-69
2023/03/27 02:34:23;;;;;;;6.73;1.20;;;4.80;99.90;;;;;;5084037;28;20173;-66
2023/03/27 02:37:18;;;;;;;4.60;1.20;;;4.90;99.90;;;;;;5090667;28;20171;-69
2023/03/27 02:40:03;;;;;;;6.80;1.33;;;4.80;99.90;;;;;;5064662;28;20165;-68
2023/03/27 02:42:43;;;;;;;6.43;1.10;;;4.80;99.90;;;;;;5065322;28;20173;-69
2023/03/27 02:45:20;;;;;;;8.37;1.60;;;4.80;99.90;;;;;;5097982;28;20194;-68
2023/03/27 02:47:56;;;;;;;6.23;1.53;;;4.80;99.90;;;;;;5064504;28;20263;-67
2023/03/27 02:50:30;;;;;;;5.37;1.50;;;4.80;99.90;;;;;;5076326;28;20184;-66
2023/03/27 02:53:02;;;;;;;3.37;1.30;;;4.80;99.90;;;;;;5076839;28;20203;-68
2023/03/27 02:55:32;;;;;;;2.13;1.30;;;4.80;99.90;;;;;;5076882;28;20172;-69
2023/03/27 02:58:09;;;;;;;7.50;1.27;;;4.80;99.90;;;;;;5076454;28;20172;-68
2023/03/27 03:00:40;;;;;;;5.53;1.67;;;4.70;99.90;;;;;;5072446;28;20183;-67
2023/03/27 03:03:26;;;;;;;3.33;1.10;;;4.70;99.90;;;;;;5101912;28;20188;-68
2023/03/27 03:05:59;;;;;;;2.97;1.10;;;4.70;99.90;;;;;;5063994;28;20199;-68
2023/03/27 03:08:29;;;;;;;4.97;1.20;;;4.70;99.90;;;;;;5090447;28;20173;-69
2023/03/27 03:11:00;;;;;;;6.00;1.40;;;4.70;99.90;;;;;;5073458;28;20204;-69
2023/03/27 03:13:26;;;;;;;3.20;1.30;;;4.70;99.90;;;;;;5073473;28;20200;-69
2023/03/27 03:15:52;;;;;;;2.53;1.23;;;4.70;99.90;;;;;;5059091;28;20172;-68
2023/03/27 03:18:17;;;;;;;3.37;1.20;;;4.70;99.90;;;;;;5068515;28;20173;-69
2023/03/27 03:20:44;;;;;;;4.50;1.60;;;4.60;99.90;;;;;;5070910;28;20204;-69
2023/03/27 03:23:15;;;;;;;5.03;1.30;;;4.60;99.90;;;;;;5055847;28;20177;-69
2023/03/27 03:25:42;;;;;;;3.10;1.23;;;4.60;99.90;;;;;;5072188;28;20181;-69
2023/03/27 03:28:11;;;;;;;4.23;1.40;;;4.60;99.90;;;;;;5093152;28;20173;-66
2023/03/27 03:30:40;;;;;;;4.37;1.30;;;4.60;99.90;;;;;;5072601;28;20264;-69
2023/03/27 03:33:08;;;;;;;4.20;1.13;;;4.60;99.90;;;;;;5101451;28;20192;-68
2023/03/27 03:35:34;;;;;;;5.37;1.40;;;4.50;99.90;;;;;;5070167;28;20176;-69
2023/03/27 03:38:02;;;;;;;3.03;0.90;;;4.50;99.90;;;;;;5096486;28;20268;-69
2023/03/27 03:40:30;;;;;;;5.90;1.10;;;4.50;99.90;;;;;;5056287;28;20240;-70
2023/03/27 03:42:56;;;;;;;3.87;1.00;;;4.60;99.90;;;;;;5056293;28;20177;-69
2023/03/27 03:45:24;;;;;;;4.37;1.23;;;4.50;99.90;;;;;;5066544;28;20268;-69
2023/03/27 03:47:52;;;;;;;6.10;1.57;;;4.40;99.90;;;;;;5075602;28;20205;-69
2023/03/27 03:50:17;;;;;;;5.23;1.43;;;4.50;99.90;;;;;;5075798;28;20192;-69
2023/03/27 03:52:44;;;;;;;7.10;1.60;;;4.40;99.90;;;;;;5109782;28;20241;-68
2023/03/27 03:55:10;;;;;;;3.93;1.50;;;4.40;99.90;;;;;;5075983;28;20237;-69
2023/03/27 03:57:40;;;;;;;4.13;1.37;;;4.40;99.90;;;;;;5075776;28;20183;-67
2023/03/27 04:00:13;;;;;;;4.17;1.77;;;4.30;99.90;;;;;;5075610;28;20250;-69
2023/03/27 04:02:40;;;;;;;2.20;1.30;;;4.30;99.90;;;;;;5075583;28;20196;-69
2023/03/27 04:05:06;;;;;;;3.00;0.97;;;4.30;99.90;;;;;;5070589;28;20420;-69
2023/03/27 04:07:34;;;;;;;2.33;1.40;;;4.30;99.90;;;;;;5075314;28;20179;-69
2023/03/27 04:10:02;;;;;;;4.27;1.67;;;4.30;99.90;;;;;;5064288;28;20284;-69
2023/03/27 04:12:28;;;;;;;6.17;1.50;;;4.30;99.90;;;;;;5055619;28;20200;-69
2023/03/27 04:14:56;;;;;;;1.97;1.20;;;4.30;99.90;;;;;;5055853;28;20169;-69
2023/03/27 04:17:25;;;;;;;4.37;1.43;;;4.40;99.90;;;;;;5055547;28;20205;-69
2023/03/27 04:19:53;;;;;;;5.53;1.60;;;4.40;99.90;;;;;;5056364;28;20197;-68
2023/03/27 04:22:21;;;;;;;6.00;1.47;;;4.40;99.90;;;;;;5082045;28;20177;-68
2023/03/27 04:24:52;;;;;;;4.37;1.40;;;4.40;99.90;;;;;;5064082;28;20207;-65
2023/03/27 04:27:20;;;;;;;4.97;1.50;;;4.40;99.90;;;;;;5064772;28;20205;-67
2023/03/27 04:29:47;;;;;;;5.13;1.93;;;4.40;99.90;;;;;;5074086;28;20169;-67
2023/03/27 04:32:19;;;;;;;5.60;2.00;;;4.40;99.90;;;;;;5074761;28;20204;-67
2023/03/27 04:34:47;;;;;;;3.93;1.37;;;4.40;99.90;;;;;;5074667;28;20241;-67
2023/03/27 04:37:13;;;;;;;6.57;1.70;;;4.30;99.90;;;;;;5078643;28;20305;-68
2023/03/27 04:39:41;;;;;;;3.33;1.23;;;4.40;99.90;;;;;;5060387;28;20343;-67
2023/03/27 04:42:13;;;;;;;5.00;1.50;;;4.30;99.90;;;;;;5054284;28;20181;-65
2023/03/27 04:44:45;;;;;;;1.67;1.20;;;4.30;99.90;;;;;;5054638;28;20177;-66
2023/03/27 04:47:11;;;;;;;2.70;1.20;;;4.30;99.90;;;;;;5054393;28;20230;-66
2023/03/27 04:49:41;;;;;;;2.03;1.10;;;4.30;99.90;;;;;;5054252;28;20174;-67
2023/03/27 04:52:07;;;;;;;4.60;1.83;;;4.30;99.90;;;;;;5054408;28;20181;-65
2023/03/27 04:54:33;;;;;;;4.57;1.40;;;4.20;99.90;;;;;;5058650;28;20288;-66
2023/03/27 04:57:00;;;;;;;3.23;1.10;;;4.20;99.90;;;;;;5072834;28;20187;-66
2023/03/27 04:59:30;;;;;;;3.93;1.30;;;4.20;99.90;;;;;;5070032;28;20267;-65
2023/03/27 05:02:00;;;;;;;2.73;1.10;;;4.20;99.90;;;;;;5073190;28;20200;-66
2023/03/27 05:04:27;;;;;;;2.97;1.00;;;4.10;99.90;;;;;;5074145;28;20167;-66
2023/03/27 05:06:56;;;;;;;3.67;1.30;;;4.10;99.90;;;;;;5073490;28;20169;-65
2023/03/27 05:09:25;;;;;;;4.33;1.40;;;4.10;99.90;;;;;;5067726;28;20288;-65
2023/03/27 05:11:53;;;;;;;3.77;1.17;;;4.10;99.90;;;;;;5073934;28;20274;-67
2023/03/27 05:14:20;;;;;;;3.03;1.17;;;4.00;99.90;;;;;;5072047;28;20201;-66
2023/03/27 05:16:52;;;;;;;2.90;1.20;;;4.00;99.90;;;;;;5073664;28;20229;-67
2023/03/27 05:19:20;;;;;;;3.87;1.17;;;4.00;99.90;;;;;;5073514;28;20181;-65
2023/03/27 05:21:48;;;;;;;3.47;0.83;;;3.90;99.90;;;;;;5070899;28;20226;-66
2023/03/27 05:24:15;;;;;;;5.03;1.30;;;3.90;99.90;;;;;;5053600;28;20173;-66
2023/03/27 05:26:41;;;;;;;2.70;1.17;;;3.90;99.90;;;;;;5053298;28;20231;-66
2023/03/27 05:29:07;;;;;;;3.80;1.13;;;3.90;99.90;;;;;;5053839;28;20181;-65
2023/03/27 05:31:36;;;;;;;2.97;1.20;;;3.90;99.90;;;;;;5067838;28;20279;-68
2023/03/27 05:34:01;;;;;;;4.67;1.10;;;3.90;99.90;;;;;;5070147;28;20197;-66
2023/03/27 05:36:30;;;;;;;3.03;1.10;;;3.80;99.90;;;;;;5053779;28;20176;-66
2023/03/27 05:38:56;;;;;;;3.00;1.10;;;3.80;99.90;;;;;;5059892;28;20253;-66
2023/03/27 05:41:24;;;;;;;4.43;1.67;;;3.80;99.90;;;;;;5073719;28;20196;-65
2023/03/27 05:43:50;;;;;;;2.93;1.47;;;3.90;99.90;;;;;;5071820;28;20177;-66
2023/03/27 05:46:16;;;;;;;5.30;1.67;;;3.80;99.90;;;;;;5073523;28;20230;-67
2023/03/27 05:48:45;;;;;;;4.57;1.77;;;3.80;99.90;;;;;;5073660;28;20224;-67
2023/03/27 05:51:13;;;;;;;6.37;2.07;;;3.80;99.90;;;;;;5073215;28;20196;-65
2023/03/27 05:53:41;;;;;;;3.73;1.97;;;3.80;99.90;;;;;;5076293;28;20172;-66
2023/03/27 05:56:08;;;;;;;4.13;2.27;;;3.70;99.90;;;;;;5076828;28;20199;-66
2023/03/27 05:58:34;;;;;;;8.17;2.20;;;3.80;99.90;;;;;;5064017;28;20185;-66
2023/03/27 06:01:02;;;;;;;3.67;1.70;;;3.70;99.90;;;;;;5057439;28;20187;-66
2023/03/27 06:03:29;;;;;;;5.50;1.50;;;3.80;99.90;;;;;;5072289;28;20211;-65
2023/03/27 06:05:58;;;;;;;4.27;2.00;;;3.70;99.90;;;;;;5076444;28;20321;-66
2023/03/27 06:08:28;;;;;;;5.27;1.50;;;3.70;99.90;;;;;;5090681;28;20327;-67
2023/03/27 06:10:54;;;;;;;5.50;1.80;;;3.70;99.90;;;;;;5095576;28;20196;-66
2023/03/27 06:13:20;;;;;;;5.10;1.70;;;3.80;99.90;;;;;;5090214;28;20201;-66
2023/03/27 06:15:46;;;;;;;4.87;1.87;;;3.80;99.90;;;;;;5090460;28;20177;-66
2023/03/27 06:18:12;;;;;;;3.50;1.70;;;3.80;99.90;;;;;;5073434;28;20169;-66
2023/03/27 06:20:38;;;;;;;3.07;1.90;;;3.90;99.90;;;;;;5076457;28;20200;-66
2023/03/27 06:23:05;;;;;;;4.40;1.50;;;3.90;99.90;;;;;;5076990;28;20214;-67
2023/03/27 06:25:33;;;;;;;4.80;1.80;;;4.00;99.90;;;;;;5077022;28;20177;-66
2023/03/27 06:28:00;;;;;;;3.27;1.87;;;4.10;99.90;;;;;;5077002;28;20254;-66
2023/03/27 06:30:29;;;;;;;3.97;1.90;;;4.10;99.90;;;;;;5076964;28;20283;-66
2023/03/27 06:32:57;;;;;;;3.83;1.80;;;4.20;99.90;;;;;;5076707;28;20191;-67
2023/03/27 06:35:24;;;;;;;5.50;1.97;;;4.30;99.90;;;;;;5077152;28;20200;-66
2023/03/27 06:37:51;;;;;;;5.07;1.87;;;4.40;99.90;;;;;;5073246;28;20173;-66
2023/03/27 06:40:22;;;;;;;7.20;2.30;;;4.40;99.90;;;;;;5073068;28;20268;-66
2023/03/27 06:43:01;;;;;;;6.40;1.87;;;4.50;99.90;;;;;;5073571;28;20211;-66
2023/03/27 06:45:37;;;;;;;3.47;1.80;;;4.60;99.90;;;;;;5073247;28;20189;-67
2023/03/27 06:48:04;;;;;;;6.70;2.07;;;4.70;99.90;;;;;;5073518;28;20237;-66
2023/03/27 06:50:31;;;;;;;7.00;2.00;;;4.80;99.90;;;;;;5072910;28;20216;-67
2023/03/27 06:52:57;;;;;;;5.40;2.20;;;4.90;99.90;;;;;;5057747;28;20233;-67
2023/03/27 06:55:25;;;;;;;3.90;2.03;;;5.00;99.90;;;;;;5064662;28;20201;-66
2023/03/27 06:57:55;;;;;;;7.07;2.40;;;5.10;99.90;;;;;;5090466;28;20177;-66
2023/03/27 07:00:24;;;;;;;9.03;2.40;;;5.10;99.90;;;;;;5090359;28;20185;-66
2023/03/27 07:03:07;;;;;;;4.87;2.10;;;5.20;99.90;;;;;;5056602;28;20182;-67
2023/03/27 07:05:35;;;;;;;4.40;1.90;;;5.20;99.90;;;;;;5056792;28;20303;-67
2023/03/27 07:08:03;;;;;;;5.17;2.20;;;5.30;99.90;;;;;;5056906;28;20232;-67
2023/03/27 07:10:31;;;;;;;6.20;2.20;;;5.40;99.90;;;;;;5074343;28;20265;-66
2023/03/27 07:12:57;;;;;;;4.93;2.27;;;5.50;99.90;;;;;;5076626;28;20173;-67
2023/03/27 07:15:25;;;;;;;6.13;2.03;;;5.50;99.90;;;;;;5076589;28;20192;-66
2023/03/27 07:17:56;;;;;;;4.50;2.03;;;5.60;99.90;;;;;;5076698;28;20179;-66
2023/03/27 07:20:22;;;;;;;4.47;2.07;;;5.50;99.90;;;;;;5071141;28;20271;-66
2023/03/27 07:22:51;;;;;;;5.87;2.30;;;5.60;99.90;;;;;;5071949;28;20197;-66
2023/03/27 07:25:17;;;;;;;3.57;1.90;;;5.60;99.90;;;;;;5056645;28;20185;-67
2023/03/27 07:27:45;;;;;;;4.70;2.30;;;5.70;99.90;;;;;;5061214;28;20188;-67
2023/03/27 07:30:13;;;;;;;5.87;2.20;;;5.70;99.90;;;;;;5056021;28;20197;-66
2023/03/27 07:32:41;;;;;;;5.53;2.50;;;5.70;99.90;;;;;;5056009;28;20184;-66
2023/03/27 07:35:08;;;;;;;6.23;2.53;;;5.80;99.90;;;;;;5055834;28;20193;-67
2023/03/27 07:37:36;;;;;;;4.30;2.20;;;5.80;99.90;;;;;;5107679;28;20385;-67
2023/03/27 07:40:03;;;;;;;4.03;2.20;;;5.80;99.90;;;;;;5077061;28;20236;-66
2023/03/27 07:42:31;;;;;;;10.40;2.43;;;5.80;99.90;;;;;;5075905;28;20246;-66
2023/03/27 07:44:56;;;;;;;4.93;2.40;;;5.80;99.90;;;;;;5075826;28;20206;-67
2023/03/27 07:47:24;;;;;;;3.50;2.00;;;5.90;99.90;;;;;;5075914;28;20172;-66
2023/03/27 07:49:52;;;;;;;5.50;2.07;;;6.00;99.90;;;;;;5072274;28;20201;-67
2023/03/27 07:52:18;;;;;;;4.90;2.07;;;6.00;99.90;;;;;;5058021;28;20227;-66
2023/03/27 07:54:44;;;;;;;5.03;2.13;;;6.10;99.90;;;;;;5069234;28;20169;-66
2023/03/27 07:57:10;;;;;;;5.17;1.93;;;6.10;99.90;;;;;;5061879;28;20183;-66
2023/03/27 07:59:35;;;;;;;3.93;2.07;;;6.10;99.90;;;;;;5075972;28;20176;-66
2023/03/27 08:02:01;;;;;;;3.40;1.60;;;6.20;99.90;;;;;;5075187;28;20181;-66
2023/03/27 08:04:27;;;;;;;3.17;1.80;;;6.20;99.90;;;;;;5072144;28;20185;-66
2023/03/27 08:06:53;;;;;;;4.83;1.40;;;6.20;99.90;;;;;;5075674;28;20176;-67
2023/03/27 08:09:20;;;;;;;4.43;2.00;;;6.30;99.90;;;;;;5067624;28;20227;-66
2023/03/27 08:11:49;;;;;;;4.70;1.60;;;6.30;99.90;;;;;;5072157;28;20255;-66
2023/03/27 08:14:15;;;;;;;4.03;1.57;;;6.40;99.90;;;;;;5075270;28;20306;-66
2023/03/27 08:16:41;;;;;;;3.30;1.60;;;6.50;99.90;;;;;;5074749;28;20200;-67
2023/03/27 08:19:09;;;;;;;6.20;1.70;;;6.50;99.90;;;;;;5071872;28;20189;-67
2023/03/27 08:21:37;;;;;;;2.43;1.43;;;6.60;99.90;;;;;;5059527;28;20208;-66
2023/03/27 08:24:03;;;;;;;3.60;1.60;;;6.60;99.90;;;;;;5075219;28;20205;-67
2023/03/27 08:26:31;;;;;;;3.67;1.60;;;6.70;99.90;;;;;;5074854;28;20172;-67
2023/03/27 08:28:57;;;;;;;3.17;1.70;;;6.70;99.90;;;;;;5075515;28;20185;-66
2023/03/27 08:31:27;;;;;;;3.30;1.47;;;6.90;99.90;;;;;;5074747;28;20200;-66
2023/03/27 08:33:53;;;;;;;5.07;1.60;;;6.90;99.90;;;;;;5076185;28;20182;-66
2023/03/27 08:36:19;;;;;;;4.30;1.60;;;6.90;99.90;;;;;;5074521;28;20231;-65
2023/03/27 08:38:45;;;;;;;3.13;1.43;;;7.00;99.90;;;;;;5071327;28;20174;-64
2023/03/27 08:41:39;;;;;;;2.93;1.43;;;7.10;99.90;;;;;;5071725;28;20204;-67
2023/03/27 08:44:10;;;;;;;3.60;1.67;;;7.10;99.90;;;;;;5074524;28;20204;-66
2023/03/27 08:46:51;;;;;;;3.07;1.40;;;7.20;99.90;;;;;;5075107;28;20208;-66
2023/03/27 08:49:20;;;;;;;3.47;2.07;;;7.40;99.90;;;;;;5071536;28;20207;-66
2023/03/27 08:51:59;;;;;;;5.70;3.13;;;7.40;99.90;;;;;;5059973;28;22896;-66
2023/03/27 08:54:30;;;;;;;4.73;2.90;;;7.50;99.90;;;;;;5054748;28;20181;-66
2023/03/27 08:56:59;;;;;;;5.00;3.17;;;7.50;99.90;;;;;;5054975;28;20197;-66
2023/03/27 08:59:27;;;;;;;3.67;3.20;;;7.50;99.90;;;;;;5054829;28;20173;-66
2023/03/27 09:02:06;;;;;;;6.53;4.03;;;7.50;99.90;;;;;;5054775;28;20205;-67
2023/03/27 09:04:50;;;;;;;6.33;4.03;;;7.50;99.90;;;;;;5056150;28;20200;-66
2023/03/27 09:07:31;;;;;;;4.30;2.90;;;7.50;99.90;;;;;;5074701;28;20195;-66
2023/03/27 09:10:34;;;;;;;4.97;3.40;;;7.50;99.90;;;;;;5074025;28;20215;-66
2023/03/27 09:13:03;;;;;;;8.80;3.30;;;7.50;99.90;;;;;;5074776;28;20179;-66
2023/03/27 09:15:33;;;;;;;6.23;2.80;;;7.50;99.90;;;;;;5069705;28;20177;-67
2023/03/27 09:18:09;;;;;;;5.43;2.30;;;7.60;99.90;;;;;;5054169;28;20193;-66
2023/03/27 09:20:52;;;;;;;2.87;2.00;;;7.70;99.90;;;;;;5054241;28;20165;-66
2023/03/27 09:23:29;;;;;;;8.07;2.80;;;7.70;99.90;;;;;;5055094;28;20185;-67
2023/03/27 09:26:32;;;;;;;3.67;2.50;;;7.80;99.90;;;;;;5074311;28;20172;-67
2023/03/27 09:29:16;;;;;;;3.87;1.90;;;7.80;99.90;;;;;;5110294;28;20274;-66
2023/03/27 09:31:50;;;;;;;3.37;1.77;;;7.90;99.90;;;;;;5078432;28;20231;-67
2023/03/27 09:34:32;;;;;;;5.03;2.17;;;7.90;99.90;;;;;;5078641;28;20231;-66
2023/03/27 09:36:59;;;;;;;4.07;1.93;;;8.00;99.90;;;;;;5078664;28;20173;-67
2023/03/27 09:39:34;;;;;;;3.13;1.53;;;8.10;99.90;;;;;;5078429;28;20322;-66
2023/03/27 09:42:09;;;;;;;2.63;1.40;;;8.20;99.90;;;;;;5074272;28;20189;-67
2023/03/27 09:44:41;;;;;;;3.20;1.53;;;8.20;99.90;;;;;;5058160;28;20201;-67
2023/03/27 09:47:09;;;;;;;1.80;1.13;;;8.10;99.90;;;;;;5058242;28;20203;-68
2023/03/27 09:49:39;;;;;;;2.93;1.37;;;7.90;99.90;;;;;;5091675;28;20211;-69
2023/03/27 09:52:07;;;;;;;3.07;1.40;;;7.70;99.90;;;;;;5057880;28;20208;-66
2023/03/27 09:54:51;;;;;;;4.13;1.40;;;7.40;99.90;;;;;;5091583;28;20189;-65
2023/03/27 09:57:21;;;;;;;1.57;1.10;;;7.10;99.90;;;;;;5058143;28;20180;-68
2023/03/27 10:00:00;;;;;;;2.40;1.40;;;6.80;99.90;;;;;;5100686;28;20208;-68
2023/03/27 10:02:28;;;;;;;2.20;1.50;;;6.60;99.90;;;;;;5062908;28;20196;-67
2023/03/27 10:05:21;;;;;;;2.47;1.50;;;6.50;99.90;;;;;;5058029;28;20193;-67
2023/03/27 10:07:49;;;;;;;2.90;1.70;;;6.30;99.90;;;;;;5057712;28;20197;-68
2023/03/27 10:10:18;;;;;;;4.67;1.77;;;6.50;99.90;;;;;;5057700;28;20213;-68
2023/03/27 10:12:52;;;;;;;5.23;2.10;;;7.00;99.90;;;;;;5057410;28;20269;-68
2023/03/27 10:15:37;;;;;;;3.93;1.90;;;7.60;99.90;;;;;;5057777;28;20189;-68
2023/03/27 10:18:42;;;;;;;4.60;1.80;;;8.20;99.90;;;;;;5091366;28;20197;-69
2023/03/27 10:21:14;;;;;;;4.77;2.27;;;8.70;99.90;;;;;;4982389;28;20183;-69
2023/03/27 10:23:48;;;;;;;2.60;1.63;;;9.10;99.90;;;;;;5064056;28;20192;-66
2023/03/27 10:26:26;;;;;;;2.73;1.70;;;9.40;99.90;;;;;;5077206;28;20200;-66
2023/03/27 10:29:00;;;;;;;4.73;1.77;;;9.70;99.90;;;;;;5076685;28;20168;-67
2023/03/27 10:31:39;;;;;;;2.80;1.20;;;9.90;99.90;;;;;;5076871;28;20283;-67
2023/03/27 10:34:31;;;;;;;3.70;1.57;;;10.10;99.90;;;;;;5076816;28;20184;-68
2023/03/27 10:36:57;;;;;;;2.50;1.40;;;10.30;99.90;;;;;;5076986;28;20248;-67
2023/03/27 10:39:34;;;;;;;3.50;1.57;;;10.30;99.90;;;;;;5058891;28;20212;-67
2023/03/27 10:42:08;;;;;;;3.77;1.60;;;10.10;99.90;;;;;;5056815;28;20173;-67
2023/03/27 10:44:39;;;;;;;5.10;1.70;;;9.80;99.90;;;;;;5071696;28;20357;-67
2023/03/27 10:47:22;;;;;;;5.00;2.17;;;9.60;99.90;;;;;;5076705;28;20236;-67
2023/03/27 10:49:51;;;;;;;3.60;1.30;;;9.50;99.90;;;;;;5076495;28;20215;-65
2023/03/27 10:52:28;;;;;;;4.73;1.50;;;9.40;99.90;;;;;;5076072;28;20228;-67
2023/03/27 10:55:35;;;;;;;4.13;1.50;;;9.40;99.90;;;;;;5072627;28;20184;-67
2023/03/27 10:58:13;;;;;;;3.00;1.23;;;9.60;99.90;;;;;;5067171;28;20189;-66
2023/03/27 11:00:45;;;;;;;3.03;1.00;;;9.90;99.90;;;;;;5056222;28;20173;-66
2023/03/27 11:03:33;;;;;;;4.43;1.33;;;10.10;99.90;;;;;;5056154;28;20173;-66
2023/03/27 11:06:05;;;;;;;3.13;1.30;;;10.30;99.90;;;;;;5056137;28;20209;-66
2023/03/27 11:08:46;;;;;;;5.13;1.38;;;10.60;99.90;;;;;;5062000;28;20181;-65
2023/03/27 11:11:21;;;;;;;5.45;1.45;;;10.80;99.90;;;;;;5089396;28;20205;-65
2023/03/27 11:13:51;;;;;;;2.58;1.42;;;11.00;99.90;;;;;;5072185;28;20196;-66
2023/03/27 11:16:40;;;;;;;3.38;1.27;;;11.10;99.90;;;;;;5072604;28;20166;-65
2023/03/27 11:19:09;;;;;;;3.35;1.30;;;11.00;99.90;;;;;;5072586;28;20188;-65
2023/03/27 11:21:46;;;;;;;3.42;1.38;;;10.90;99.90;;;;;;5055909;28;20172;-65
2023/03/27 11:24:28;;;;;;;4.60;1.50;;;10.70;99.90;;;;;;5072577;28;20177;-66
2023/03/27 11:27:38;;;;;;;6.35;1.90;;;10.70;99.90;;;;;;5072488;28;20260;-66
2023/03/27 11:30:07;;;;;;;3.17;1.35;;;10.90;99.90;;;;;;5049088;28;20272;-66
2023/03/27 11:32:51;;;;;;;5.68;1.65;;;11.00;99.90;;;;;;5059975;28;20168;-66
2023/03/27 11:35:23;;;;;;;6.60;1.50;;;11.10;99.90;;;;;;5075903;28;20204;-66
2023/03/27 11:38:00;;;;;;;5.50;1.85;;;11.10;99.90;;;;;;5075682;28;20184;-66
2023/03/27 11:40:40;;;;;;;3.95;1.50;;;11.10;99.90;;;;;;5072150;28;20197;-66
2023/03/27 11:43:09;;;;;;;4.63;1.20;;;11.00;99.90;;;;;;5072589;28;20206;-66
2023/03/27 11:46:00;;;;;;;2.75;1.27;;;10.90;99.90;;;;;;5072961;28;20243;-65
2023/03/27 11:49:03;;;;;;;3.90;1.00;;;11.00;99.90;;;;;;5056288;28;20181;-67
2023/03/27 11:51:43;;;;;;;3.78;1.13;;;11.10;99.90;;;;;;5060360;28;20199;-67
2023/03/27 11:54:18;;;;;;;5.07;1.40;;;11.30;99.90;;;;;;5060232;28;20204;-67
2023/03/27 11:56:53;;;;;;;5.88;1.70;;;11.50;99.90;;;;;;5060908;28;20172;-66
2023/03/27 11:59:46;;;;;;;2.83;1.30;;;11.70;99.90;;;;;;5057509;28;20263;-66
2023/03/27 12:02:33;;;;;;;2.35;1.05;;;11.60;99.90;;;;;;5056333;28;20189;-66
2023/03/27 12:05:08;;;;;;;4.30;1.50;;;11.50;99.90;;;;;;5055212;28;20172;-67
2023/03/27 12:08:04;;;;;;;2.63;1.10;;;11.20;99.90;;;;;;5055139;28;20196;-66
2023/03/27 12:10:36;;;;;;;3.87;1.30;;;10.90;99.90;;;;;;5055216;28;20205;-67
2023/03/27 12:13:17;;;;;;;3.40;1.00;;;10.40;99.90;;;;;;5054770;28;20294;-67
2023/03/27 12:15:57;;;;;;;1.63;1.00;;;9.90;99.90;;;;;;5055041;28;20161;-66
2023/03/27 12:18:44;;;;;;;3.57;1.00;;;9.50;99.90;;;;;;5054755;28;20165;-65
2023/03/27 12:21:12;;;;;;;1.40;0.90;;;9.30;99.90;;;;;;5054682;28;20304;-66
2023/03/27 12:23:37;;;;;;;2.07;1.00;;;9.30;99.90;;;;;;5054785;28;20180;-65
2023/03/27 12:26:21;;;;;;;1.43;0.80;;;9.40;99.90;;;;;;5054722;28;20173;-65
2023/03/27 12:29:08;;;;;;;2.03;0.83;;;9.50;99.90;;;;;;5054851;28;20169;-66
2023/03/27 12:32:02;;;;;;;2.30;0.77;;;9.70;99.90;;;;;;5061166;28;20193;-66
2023/03/27 12:35:02;;;;;;;4.37;0.90;;;9.70;99.90;;;;;;5055258;28;20250;-66
2023/03/27 12:37:39;;;;;;;3.80;1.23;;;9.70;99.90;;;;;;5053871;28;20400;-81
2023/03/27 12:40:26;;;;;;;4.43;1.10;;;9.60;99.90;;;;;;5054448;28;20166;-80
2023/03/27 12:42:53;;;;;;;1.87;1.00;;;9.40;99.90;;;;;;5054379;28;20172;-81
2023/03/27 12:45:26;;;;;;;1.30;1.03;;;9.20;99.90;;;;;;5054467;28;20208;-82
2023/03/27 12:48:05;;;;;;;1.50;1.00;;;8.90;99.90;;;;;;5054049;28;20197;-74
2023/03/27 12:50:40;;;;;;;2.43;1.00;;;8.60;99.90;;;;;;5098397;28;20210;-79
2023/03/27 12:53:17;;;;;;;2.67;1.00;;;8.50;99.90;;;;;;5074888;28;20226;-81
2023/03/27 12:55:44;;;;;;;1.10;0.80;;;8.40;99.90;;;;;;5059291;28;20177;-82
2023/03/27 12:58:26;;;;;;;2.03;1.00;;;8.30;99.90;;;;;;5054915;28;20177;-82
2023/03/27 13:00:58;;;;;;;2.97;0.90;;;8.20;99.90;;;;;;5054149;28;20162;-82
2023/03/27 13:03:41;;;;;;;1.97;0.80;;;8.20;99.90;;;;;;5054650;28;20246;-80
2023/03/27 13:06:34;;;;;;;1.73;0.80;;;8.10;99.90;;;;;;5079056;28;20197;-81
2023/03/27 13:09:08;;;;;;;1.60;1.00;;;8.20;99.90;;;;;;5088171;28;20196;-80
2023/03/27 13:12:15;;;;;;;2.10;0.90;;;8.30;99.90;;;;;;5093872;28;20261;-81
2023/03/27 13:14:48;;;;;;;1.17;0.70;;;8.50;99.90;;;;;;5108132;28;20196;-82
2023/03/27 13:17:22;;;;;;;2.13;1.00;;;8.70;99.90;;;;;;5074668;28;20207;-81
2023/03/27 13:20:09;;;;;;;2.10;1.00;;;9.10;99.90;;;;;;5074397;28;20188;-81
2023/03/27 13:22:53;;;;;;;1.97;0.80;;;9.30;99.90;;;;;;5074764;28;20267;-80
2023/03/27 13:25:42;;;;;;;1.90;0.90;;;9.50;99.90;;;;;;5074347;28;20200;-80
2023/03/27 13:28:20;;;;;;;2.65;0.70;;;9.80;99.90;;;;;;5065608;28;20185;-81